KMYV/MYV METAR and TAF weather

Enter ICAO airport designator
Station Type Date Time Source
KMYV METAR 2020/10/29 16:53 UTC NOAA

KMYV 291653Z AUTO 00000KT 10SM CLR 15/02 A3012 RMK AO2 SLP201 T01500022


Station Type Date Time Source
KMYV Decoded METAR 2020/10/29 16:53 UTC NOAA

MARYSVILLE YUBA COUNTY, CA, United States (KMYV) 39-06N 121-34W 21M
Oct 29, 2020 - 12:53 PM EDT / 2020.10.29 1653 UTC
Wind: Calm:0
Visibility: 10 mile(s):0
Sky conditions: clear
Temperature: 59.0 F (15.0 C)
Dew Point: 36.0 F (2.2 C)
Relative Humidity: 41%
Pressure (altimeter): 30.12 in. Hg (1019 hPa)
ob: KMYV 291653Z AUTO 00000KT 10SM CLR 15/02 A3012 RMK AO2 SLP201 T01500022
cycle: 17

Station Type Date Time Source
KMYV TAF UTC NOAA

Error!

Example: see airport list